Huvudsida
METAR-TAF:

METAR-TAF

Flygplatser :

Björneborgs flygplats

Björneborg, Finland

latitud: 61-28N, longitud: 021-48E, höjd: 13 m

Aktuellt väderrapport

Denna rapport gjordes för 13 minuter sedan, klockan 07:20 UTC
Vind 8 kt från nordväst, varierande mellan väst och nord
Temperatur 2°C
Fuktighet 51%
Tryck 1028 hPa
Sikt 10 km eller mer
Få moln på en höjd av 3000 ft

METAR: EFPO 050720Z AUTO 31008KT 260V350 9999 FEW030 02/M07 Q1028

Tid: 10:33 (07:33 UTC)


TAF: saknas

Aktuella väderrapporter och prognoser från 4000 flygplatser (METAR- och TAF-rapporter).

De tillgängliga stationerna syns som gula och röda prickar på kartan.

För musen över prickarna för att se namnen på stationerna.

Klicka sedan för att få väderrapporter och prognoser.

För att ändra kartan: Klicka på de gröna knapparna med ett svart kors på för att zooma in; den gröna knappen med ett streck på för att zooma ut; eller på de gröna pilarna för angränsande kartor.


METAR-TAF: